Serene Lydia — C6YE7 — position and weather

sailwx.info

Track history (hours):
 
Tides and Currents Weather Stations Pressure Air Temp Water Temp Dewpoint Dewpoint Depression Visibility Wind Speed Wind Dir Waves Ship Positions

Serene Lydia

Last reported at 2017-Jun-02 16:44 UTC. Time now 2017-Jun-26 15:33 UTC.
Position N 27°32' W 014°07'.
Warning: this ship's position is 23 days out of date.

Length 190 m; draft 8.4 m.

Type: Ship. MMSI: 311030200.

Date/timePositionNaut miles runAvg speedWind from/ knotsBaromVisibWave heightAir tempDewpointWater temp
2017-Jun-02 16:44N 27°32' W 014°07'313.6
2017-Jun-02 16:29N 27°34' W 014°05'713.8
2017-Jun-02 16:00N 27°40' W 014°01'813.9
2017-Jun-02 15:28N 27°46' W 013°56'613.9
2017-Jun-02 14:59N 27°51' W 013°51'1513.6
2017-Jun-02 13:51N 28°04' W 013°41'1713.8
2017-Jun-02 12:36N 28°18' W 013°30'213.8
2017-Jun-02 12:26N 28°20' W 013°28'60913.1
2017-May-31 14:00N 35°58' W 005°35'612.3
2017-May-31 13:30N 36°00' W 005°28'4 7.6
2017-May-31 13:00N 36°03' W 005°24'3 6.9
2017-May-31 12:30N 36°06' W 005°23'1 1.1
2017-May-31 11:30N 36°07' W 005°22'0 0.1
2017-May-31 10:48N 36°07' W 005°22'0 0.0
2017-May-31 10:30N 36°07' W 005°22'0 0.0
2017-May-31 09:45N 36°07' W 005°22'0 0.1
2017-May-31 09:24N 36°07' W 005°22'0 0.0
2017-May-31 08:51N 36°07' W 005°22'0 0.2
2017-May-31 08:21N 36°07' W 005°22'0 0.2
2017-May-31 07:51N 36°07' W 005°22'0 0.0
2017-May-31 06:24N 36°07' W 005°22'0 0.1
2017-May-31 05:57N 36°07' W 005°22'0 0.1
2017-May-31 05:06N 36°07' W 005°22'0 0.3
2017-May-31 05:00N 36°07' W 005°22'0 0.1
2017-May-31 04:30N 36°07' W 005°22'0 0.3
2017-May-31 04:00N 36°07' W 005°22'0 0.1
2017-May-31 03:30N 36°07' W 005°22'0 0.1
2017-May-31 03:00N 36°07' W 005°22'0 0.0
2017-May-31 02:30N 36°07' W 005°22'0 0.0
2017-May-31 02:00N 36°07' W 005°22'0 0.0
2017-May-31 01:30N 36°07' W 005°22'0 0.0
2017-May-31 01:00N 36°07' W 005°22'0 0.2
2017-May-31 00:30N 36°07' W 005°22'0 0.3
2017-May-31 00:00N 36°07' W 005°22'0 0.1
2017-May-30 23:30N 36°07' W 005°22'0 0.0
2017-May-30 22:24N 36°07' W 005°22'0 0.1
2017-May-30 22:00N 36°07' W 005°22'0 0.0
2017-May-30 21:30N 36°07' W 005°22'0 0.0
2017-May-30 20:54N 36°07' W 005°22'0 0.2
2017-May-30 20:30N 36°07' W 005°22'0 0.2
2017-May-30 20:00N 36°07' W 005°22'0 0.1
2017-May-30 19:21N 36°07' W 005°22'0 0.2
2017-May-30 18:51N 36°07' W 005°22'0 0.0
2017-May-30 18:30N 36°07' W 005°22'0 0.2
2017-May-30 18:00N 36°07' W 005°22'0 0.1
2017-May-30 17:27N 36°07' W 005°22'0 0.1
2017-May-30 16:54N 36°07' W 005°22'0 0.2
2017-May-30 16:30N 36°07' W 005°22'0 0.1
2017-May-30 16:00N 36°07' W 005°22'1 3.0
2017-May-30 15:30N 36°06' W 005°21'3 5.5
2017-May-30 15:00N 36°06' W 005°18'2 3.1
2017-May-30 14:30N 36°06' W 005°16'4 3.5
2017-May-30 13:30N 36°08' W 005°12'1 1.5
2017-May-30 12:59N 36°08' W 005°12'1 2.1
2017-May-30 12:30N 36°07' W 005°11'2 3.7
2017-May-30 12:00N 36°09' W 005°10'1 1.1
2017-May-30 11:30N 36°09' W 005°10'0 0.6
2017-May-30 11:00N 36°09' W 005°10'1 2.2
2017-May-30 10:30N 36°10' W 005°09'2 1.2
2017-May-30 08:24N 36°07' W 005°10'2 3.2
2017-May-30 07:40N 36°05' W 005°09'1 3.3
2017-May-30 07:16N 36°04' W 005°08'4 3.9
2017-May-30 06:18N 36°04' W 005°04'3 7.3
2017-May-30 05:55N 36°04' W 005°00'9 7.9
2017-May-30 04:44N 35°56' W 004°54'2 6.7
2017-May-30 04:29N 35°56' W 004°51'4 5.9
2017-May-30 03:43N 35°56' W 004°46'9 1.3
2017-May-29 21:03N 35°55' W 004°57'0 2.9
2017-May-29 20:56N 35°55' W 004°57'1 3.4
2017-May-29 20:30N 35°54' W 004°56'5 9.4
2017-May-29 19:58N 35°52' W 004°51'9 1.4
2017-May-29 13:51N 35°55' W 005°01'1 3.7
2017-May-29 13:30N 35°53' W 005°01'5 0.6
2017-May-29 06:11N 35°51' W 004°56'0 1.9
2017-May-29 06:00N 35°51' W 004°56'1 1.4
2017-May-29 05:13N 35°51' W 004°58'0 1.7
2017-May-29 05:00N 35°51' W 004°57'3 5.9
2017-May-29 04:29N 35°48' W 004°56'3 6.2
2017-May-29 04:00N 35°45' W 004°55'6 3.0
2017-May-29 01:59N 35°41' W 004°51'1 1.3
2017-May-29 00:52N 35°42' W 004°50'3 1.3
2017-May-28 22:37N 35°45' W 004°49'2 1.3
2017-May-28 21:01N 35°47' W 004°50'0 1.4
2017-May-28 20:59N 35°47' W 004°50'1 1.3
2017-May-28 20:20N 35°48' W 004°50'1 1.3
2017-May-28 19:49N 35°48' W 004°51'1 1.4
2017-May-28 19:25N 35°49' W 004°51'1 1.4
2017-May-28 18:49N 35°49' W 004°52'1 1.6
2017-May-28 18:30N 35°50' W 004°52'1 1.7
2017-May-28 17:55N 35°50' W 004°53'1 1.8
2017-May-28 17:30N 35°51' W 004°54'1 1.9
2017-May-28 17:00N 35°51' W 004°55'2 1.5
2017-May-28 15:45N 35°52' W 004°57'0 1.0
2017-May-28 15:30N 35°52' W 004°57'1 0.9
2017-May-28 14:51N 35°52' W 004°58'1 0.6
2017-May-28 13:53N 35°52' W 004°59'0 0.6
2017-May-28 13:27N 35°52' W 004°59'0 0.5
2017-May-28 12:40N 35°52' W 004°59'0 0.3
2017-May-28 12:20N 35°52' W 004°60'0 0.3
2017-May-28 11:42N 35°52' W 004°60'0 0.6
2017-May-28 11:25N 35°52' W 004°60'0 0.7
2017-May-28 10:56N 35°51' W 004°60'1 0.4
2017-May-28 08:16N 35°52' W 005°01'0 0.7
2017-May-28 07:59N 35°52' W 005°01'1 1.0
2017-May-28 07:17N 35°52' W 005°02'7 1.4
2017-May-28 01:54N 35°55' W 004°53'4 0.7
2017-May-27 20:55N 35°54' W 004°57'  
2017-May-24 05:53N 36°47' W 000°48'514.1
2017-May-24 05:30N 36°47' W 000°42'914.0
2017-May-24 04:54N 36°49' W 000°31'1913.9
2017-May-24 03:32N 36°52' W 000°08'1913.6
2017-May-24 02:08N 36°55' E 000°16'513.5
2017-May-24 01:45N 36°56' E 000°22'313.4
2017-May-24 01:30N 36°56' E 000°26'713.4
2017-May-24 01:00N 36°57' E 000°35'1213.5
2017-May-24 00:05N 36°59' E 000°50'113.4
2017-May-23 23:59N 36°59' E 000°52'913.2
2017-May-23 23:17N 37°01' E 001°03'513.2
2017-May-23 22:53N 37°01' E 001°10'513.5
2017-May-23 22:30N 37°02' E 001°16'1613.7
2017-May-23 21:19N 37°04' E 001°36'413.9
2017-May-23 21:00N 37°04' E 001°42'  
Track history (hours):
 
Tides and Currents Weather Stations Pressure Air Temp Water Temp Dewpoint Dewpoint Depression Visibility Wind Speed Wind Dir Waves Ship Positions

Serene Lydia

Last reported at 2017-Jun-02 16:44 UTC. Time now 2017-Jun-26 15:33 UTC.
Position N 27°32' W 014°07'.
Warning: this ship's position is 23 days out of date.

Length 190 m; draft 8.4 m.

Type: Ship. MMSI: 311030200.

Date/timePositionNaut miles runAvg speedWind from/ knotsBaromVisibWave heightAir tempDewpointWater temp
2017-Jun-02 16:44N 27°32' W 014°07'313.6
2017-Jun-02 16:29N 27°34' W 014°05'713.8
2017-Jun-02 16:00N 27°40' W 014°01'813.9
2017-Jun-02 15:28N 27°46' W 013°56'613.9
2017-Jun-02 14:59N 27°51' W 013°51'1513.6
2017-Jun-02 13:51N 28°04' W 013°41'1713.8
2017-Jun-02 12:36N 28°18' W 013°30'213.8
2017-Jun-02 12:26N 28°20' W 013°28'60913.1
2017-May-31 14:00N 35°58' W 005°35'612.3
2017-May-31 13:30N 36°00' W 005°28'4 7.6
2017-May-31 13:00N 36°03' W 005°24'3 6.9
2017-May-31 12:30N 36°06' W 005°23'1 1.1
2017-May-31 11:30N 36°07' W 005°22'0 0.1
2017-May-31 10:48N 36°07' W 005°22'0 0.0
2017-May-31 10:30N 36°07' W 005°22'0 0.0
2017-May-31 09:45N 36°07' W 005°22'0 0.1
2017-May-31 09:24N 36°07' W 005°22'0 0.0
2017-May-31 08:51N 36°07' W 005°22'0 0.2
2017-May-31 08:21N 36°07' W 005°22'0 0.2
2017-May-31 07:51N 36°07' W 005°22'0 0.0
2017-May-31 06:24N 36°07' W 005°22'0 0.1
2017-May-31 05:57N 36°07' W 005°22'0 0.1
2017-May-31 05:06N 36°07' W 005°22'0 0.3
2017-May-31 05:00N 36°07' W 005°22'0 0.1
2017-May-31 04:30N 36°07' W 005°22'0 0.3
2017-May-31 04:00N 36°07' W 005°22'0 0.1
2017-May-31 03:30N 36°07' W 005°22'0 0.1
2017-May-31 03:00N 36°07' W 005°22'0 0.0
2017-May-31 02:30N 36°07' W 005°22'0 0.0
2017-May-31 02:00N 36°07' W 005°22'0 0.0
2017-May-31 01:30N 36°07' W 005°22'0 0.0
2017-May-31 01:00N 36°07' W 005°22'0 0.2
2017-May-31 00:30N 36°07' W 005°22'0 0.3
2017-May-31 00:00N 36°07' W 005°22'0 0.1
2017-May-30 23:30N 36°07' W 005°22'0 0.0
2017-May-30 22:24N 36°07' W 005°22'0 0.1
2017-May-30 22:00N 36°07' W 005°22'0 0.0
2017-May-30 21:30N 36°07' W 005°22'0 0.0
2017-May-30 20:54N 36°07' W 005°22'0 0.2
2017-May-30 20:30N 36°07' W 005°22'0 0.2
2017-May-30 20:00N 36°07' W 005°22'0 0.1
2017-May-30 19:21N 36°07' W 005°22'0 0.2
2017-May-30 18:51N 36°07' W 005°22'0 0.0
2017-May-30 18:30N 36°07' W 005°22'0 0.2
2017-May-30 18:00N 36°07' W 005°22'0 0.1
2017-May-30 17:27N 36°07' W 005°22'0 0.1
2017-May-30 16:54N 36°07' W 005°22'0 0.2
2017-May-30 16:30N 36°07' W 005°22'0 0.1
2017-May-30 16:00N 36°07' W 005°22'1 3.0
2017-May-30 15:30N 36°06' W 005°21'3 5.5
2017-May-30 15:00N 36°06' W 005°18'2 3.1
2017-May-30 14:30N 36°06' W 005°16'4 3.5
2017-May-30 13:30N 36°08' W 005°12'1 1.5
2017-May-30 12:59N 36°08' W 005°12'1 2.1
2017-May-30 12:30N 36°07' W 005°11'2 3.7
2017-May-30 12:00N 36°09' W 005°10'1 1.1
2017-May-30 11:30N 36°09' W 005°10'0 0.6
2017-May-30 11:00N 36°09' W 005°10'1 2.2
2017-May-30 10:30N 36°10' W 005°09'2 1.2
2017-May-30 08:24N 36°07' W 005°10'2 3.2
2017-May-30 07:40N 36°05' W 005°09'1 3.3
2017-May-30 07:16N 36°04' W 005°08'4 3.9
2017-May-30 06:18N 36°04' W 005°04'3 7.3
2017-May-30 05:55N 36°04' W 005°00'9 7.9
2017-May-30 04:44N 35°56' W 004°54'2 6.7
2017-May-30 04:29N 35°56' W 004°51'4 5.9
2017-May-30 03:43N 35°56' W 004°46'9 1.3
2017-May-29 21:03N 35°55' W 004°57'0 2.9
2017-May-29 20:56N 35°55' W 004°57'1 3.4
2017-May-29 20:30N 35°54' W 004°56'5 9.4
2017-May-29 19:58N 35°52' W 004°51'9 1.4
2017-May-29 13:51N 35°55' W 005°01'1 3.7
2017-May-29 13:30N 35°53' W 005°01'5 0.6
2017-May-29 06:11N 35°51' W 004°56'0 1.9
2017-May-29 06:00N 35°51' W 004°56'1 1.4
2017-May-29 05:13N 35°51' W 004°58'0 1.7
2017-May-29 05:00N 35°51' W 004°57'3 5.9
2017-May-29 04:29N 35°48' W 004°56'3 6.2
2017-May-29 04:00N 35°45' W 004°55'6 3.0
2017-May-29 01:59N 35°41' W 004°51'1 1.3
2017-May-29 00:52N 35°42' W 004°50'3 1.3
2017-May-28 22:37N 35°45' W 004°49'2 1.3
2017-May-28 21:01N 35°47' W 004°50'0 1.4
2017-May-28 20:59N 35°47' W 004°50'1 1.3
2017-May-28 20:20N 35°48' W 004°50'1 1.3
2017-May-28 19:49N 35°48' W 004°51'1 1.4
2017-May-28 19:25N 35°49' W 004°51'1 1.4
2017-May-28 18:49N 35°49' W 004°52'1 1.6
2017-May-28 18:30N 35°50' W 004°52'1 1.7
2017-May-28 17:55N 35°50' W 004°53'1 1.8
2017-May-28 17:30N 35°51' W 004°54'1 1.9
2017-May-28 17:00N 35°51' W 004°55'2 1.5
2017-May-28 15:45N 35°52' W 004°57'0 1.0
2017-May-28 15:30N 35°52' W 004°57'1 0.9
2017-May-28 14:51N 35°52' W 004°58'1 0.6
2017-May-28 13:53N 35°52' W 004°59'0 0.6
2017-May-28 13:27N 35°52' W 004°59'0 0.5
2017-May-28 12:40N 35°52' W 004°59'0 0.3
2017-May-28 12:20N 35°52' W 004°60'0 0.3
2017-May-28 11:42N 35°52' W 004°60'0 0.6
2017-May-28 11:25N 35°52' W 004°60'0 0.7
2017-May-28 10:56N 35°51' W 004°60'1 0.4
2017-May-28 08:16N 35°52' W 005°01'0 0.7
2017-May-28 07:59N 35°52' W 005°01'1 1.0
2017-May-28 07:17N 35°52' W 005°02'7 1.4
2017-May-28 01:54N 35°55' W 004°53'4 0.7
2017-May-27 20:55N 35°54' W 004°57'  
2017-May-24 05:53N 36°47' W 000°48'514.1
2017-May-24 05:30N 36°47' W 000°42'914.0
2017-May-24 04:54N 36°49' W 000°31'1913.9
2017-May-24 03:32N 36°52' W 000°08'1913.6
2017-May-24 02:08N 36°55' E 000°16'513.5
2017-May-24 01:45N 36°56' E 000°22'313.4
2017-May-24 01:30N 36°56' E 000°26'713.4
2017-May-24 01:00N 36°57' E 000°35'1213.5
2017-May-24 00:05N 36°59' E 000°50'113.4
2017-May-23 23:59N 36°59' E 000°52'913.2
2017-May-23 23:17N 37°01' E 001°03'513.2
2017-May-23 22:53N 37°01' E 001°10'513.5
2017-May-23 22:30N 37°02' E 001°16'1613.7
2017-May-23 21:19N 37°04' E 001°36'413.9
2017-May-23 21:00N 37°04' E 001°42'  

Dump ship's entire track history